createdAt,value
2023-05-18T00:01:03.801Z,6.05
2023-05-18T00:03:33.964Z,6.05
2023-05-18T00:06:04.473Z,6.55
2023-05-18T00:08:34.221Z,5.45
2023-05-18T00:11:03.490Z,5.97
2023-05-18T00:13:31.394Z,6.30
2023-05-18T00:15:58.566Z,5.32
2023-05-18T00:18:26.673Z,6.28
2023-05-18T00:20:59.105Z,6.07
2023-05-18T00:23:31.250Z,5.45
2023-05-18T00:26:00.424Z,5.30
2023-05-18T00:28:28.283Z,5.70
2023-05-18T00:30:57.036Z,5.80
2023-05-18T00:33:25.198Z,6.03
2023-05-18T00:35:57.360Z,5.72
2023-05-18T00:38:25.341Z,6.10
2023-05-18T00:40:52.773Z,6.10
2023-05-18T00:43:20.414Z,5.78
2023-05-18T00:45:47.578Z,7.07
2023-05-18T00:48:15.482Z,6.47
2023-05-18T00:50:42.901Z,6.18
2023-05-18T00:53:12.805Z,6.47
2023-05-18T00:55:39.941Z,6.70
2023-05-18T00:58:07.156Z,6.22
2023-05-18T01:00:37.873Z,6.53
2023-05-18T01:03:05.224Z,5.97
2023-05-18T01:05:32.635Z,6.75
2023-05-18T01:07:59.908Z,6.70
2023-05-18T01:10:26.999Z,6.82
2023-05-18T01:13:01.432Z,6.90
2023-05-18T01:15:35.716Z,7.32
2023-05-18T01:18:29.133Z,6.70
2023-05-18T01:21:00.583Z,7.10
2023-05-18T01:23:42.963Z,7.20
2023-05-18T01:26:25.251Z,7.47
2023-05-18T01:28:54.561Z,7.15
2023-05-18T01:31:23.347Z,7.00
2023-05-18T01:41:41.592Z,7.10
2023-05-18T01:45:13.035Z,7.13
2023-05-18T01:48:29.026Z,6.57
2023-05-18T01:51:56.632Z,7.53
2023-05-18T01:57:02.613Z,7.93
2023-05-18T01:59:30.737Z,7.47
2023-05-18T02:02:01.070Z,8.18
2023-05-18T02:04:28.827Z,7.93
2023-05-18T02:06:56.872Z,7.97
2023-05-18T02:09:24.191Z,8.07
2023-05-18T02:11:51.858Z,8.32
2023-05-18T02:14:18.978Z,7.90
2023-05-18T02:16:47.193Z,8.15
2023-05-18T02:19:14.977Z,7.90
2023-05-18T02:21:43.714Z,8.07
2023-05-18T02:24:12.557Z,7.82
2023-05-18T02:26:39.868Z,11.20
2023-05-18T02:29:07.002Z,11.05
2023-05-18T02:31:36.107Z,10.73
2023-05-18T02:34:03.618Z,10.30
2023-05-18T02:36:37.377Z,9.93
2023-05-18T02:39:07.105Z,8.55
2023-05-18T02:41:36.816Z,9.60
2023-05-18T02:44:06.419Z,11.70
2023-05-18T02:46:33.726Z,11.80
2023-05-18T02:49:01.578Z,10.13
2023-05-18T02:51:29.953Z,9.40
2023-05-18T02:53:57.613Z,9.82
2023-05-18T02:56:24.946Z,8.50
2023-05-18T02:59:02.790Z,9.88
2023-05-18T03:01:38.766Z,10.25
2023-05-18T03:04:05.879Z,8.75
2023-05-18T03:06:36.088Z,9.75
2023-05-18T03:09:03.322Z,10.63
2023-05-18T03:11:36.367Z,7.93
2023-05-18T03:14:03.724Z,9.30
2023-05-18T03:16:30.822Z,9.23
2023-05-18T03:18:59.284Z,9.00
2023-05-18T03:21:36.111Z,8.80
2023-05-18T03:24:04.139Z,9.35
2023-05-18T03:26:33.018Z,8.93
2023-05-18T03:29:01.471Z,9.02
2023-05-18T03:31:28.859Z,9.13
2023-05-18T03:33:58.291Z,8.88
2023-05-18T03:36:28.065Z,9.25
2023-05-18T03:39:00.253Z,10.60
2023-05-18T03:41:30.162Z,8.80
2023-05-18T03:43:57.970Z,9.50
2023-05-18T03:46:25.477Z,9.20
2023-05-18T03:48:54.388Z,11.90
2023-05-18T03:51:29.267Z,9.32
2023-05-18T03:53:57.001Z,9.10
2023-05-18T03:56:24.318Z,10.23
2023-05-18T03:58:52.199Z,10.45
2023-05-18T04:01:19.327Z,10.90
2023-05-18T04:03:46.544Z,10.25
2023-05-18T04:06:13.758Z,9.40
2023-05-18T04:08:42.296Z,11.43
2023-05-18T04:11:09.661Z,12.10
2023-05-18T04:13:38.739Z,11.00
2023-05-18T04:16:07.285Z,10.43
2023-05-18T04:18:36.388Z,8.43
2023-05-18T04:21:03.723Z,9.55
2023-05-18T04:23:31.686Z,9.23
2023-05-18T04:25:59.037Z,10.73
2023-05-18T04:28:26.119Z,9.70
2023-05-18T04:31:43.075Z,10.13
2023-05-18T04:34:32.603Z,9.65
2023-05-18T04:37:08.132Z,9.75
2023-05-18T04:40:01.900Z,9.63
2023-05-18T04:42:47.982Z,10.52
2023-05-18T04:45:20.545Z,10.45
2023-05-18T04:48:07.068Z,10.05
2023-05-18T04:51:01.616Z,10.27
2023-05-18T04:53:33.464Z,10.00
2023-05-18T04:56:01.959Z,9.35
2023-05-18T04:58:30.712Z,8.48
2023-05-18T05:00:57.976Z,7.35
2023-05-18T05:03:25.430Z,6.13
2023-05-18T05:05:53.654Z,5.85
2023-05-18T05:08:21.334Z,4.05
2023-05-18T05:10:48.452Z,6.43
2023-05-18T05:13:15.625Z,4.45
2023-05-18T05:15:42.811Z,4.60
2023-05-18T05:18:12.741Z,4.60
2023-05-18T05:21:01.154Z,4.13
2023-05-18T05:23:28.718Z,3.92
2023-05-18T05:25:56.953Z,3.65
2023-05-18T05:28:24.055Z,3.95
2023-05-18T05:33:59.715Z,4.80
2023-05-18T05:36:30.104Z,4.60
2023-05-18T05:39:04.554Z,4.43
2023-05-18T05:41:40.168Z,4.40
2023-05-18T05:44:07.928Z,4.32
2023-05-18T05:46:35.228Z,4.90
2023-05-18T05:49:04.258Z,4.38
2023-05-18T05:51:31.698Z,5.25
2023-05-18T05:53:59.389Z,4.70
2023-05-18T05:56:26.540Z,4.88
2023-05-18T05:58:54.175Z,4.28
2023-05-18T06:01:21.700Z,3.33
2023-05-18T06:03:49.532Z,2.70
2023-05-18T06:06:17.839Z,1.83
2023-05-18T06:08:45.146Z,1.70
2023-05-18T06:11:12.836Z,1.30
2023-05-18T06:13:40.707Z,1.33
2023-05-18T06:16:07.842Z,0.55
2023-05-18T06:18:35.515Z,0.70
2023-05-18T06:21:05.307Z,0.70
2023-05-18T06:23:32.945Z,0.40
2023-05-18T06:26:00.353Z,1.52
2023-05-18T06:28:46.076Z,0.52
2023-05-18T06:31:42.971Z,0.20
2023-05-18T06:34:35.649Z,0.20
2023-05-18T06:37:02.776Z,0.20
2023-05-18T06:39:30.136Z,0.10
2023-05-18T06:41:59.043Z,0.57
2023-05-18T06:44:35.365Z,0.40
2023-05-18T06:47:08.136Z,0.38
2023-05-18T06:49:37.186Z,0.32
2023-05-18T06:52:07.157Z,0.30
2023-05-18T06:54:34.683Z,0.20
2023-05-18T06:57:02.102Z,0.35
2023-05-18T06:59:30.034Z,0.30
2023-05-18T07:01:57.850Z,0.10
2023-05-18T07:04:25.143Z,0.17
2023-05-18T07:06:53.852Z,0.20
2023-05-18T07:09:22.398Z,0.10
2023-05-18T07:11:49.733Z,0.32
2023-05-18T07:14:16.903Z,0.10
2023-05-18T07:16:47.172Z,0.40
2023-05-18T07:19:15.208Z,0.20
2023-05-18T07:21:42.701Z,0.20
2023-05-18T07:24:10.041Z,0.30
2023-05-18T07:26:37.300Z,0.17
2023-05-18T07:29:04.591Z,0.30
2023-05-18T07:31:36.765Z,0.38
2023-05-18T07:34:04.044Z,0.10
2023-05-18T07:36:32.553Z,0.28
2023-05-18T07:39:01.591Z,0.30
2023-05-18T07:41:31.900Z,0.15
2023-05-18T07:43:59.751Z,0.30
2023-05-18T07:46:47.645Z,0.20
2023-05-18T07:49:17.467Z,0.20
2023-05-18T07:51:46.665Z,0.20
2023-05-18T07:54:14.305Z,0.20
2023-05-18T07:56:42.334Z,0.20
2023-05-18T07:59:11.096Z,0.20
2023-05-18T08:01:40.291Z,0.20
2023-05-18T08:04:08.288Z,0.20
2023-05-18T08:06:37.007Z,0.10
2023-05-18T08:09:05.124Z,0.30
2023-05-18T08:11:33.760Z,0.22
2023-05-18T08:14:02.551Z,0.40
2023-05-18T08:16:30.168Z,0.20
2023-05-18T08:18:57.928Z,0.30
2023-05-18T08:21:25.773Z,0.20
2023-05-18T08:23:53.296Z,1.98
2023-05-18T08:26:20.817Z,0.20
2023-05-18T08:29:00.696Z,0.15
2023-05-18T08:31:34.214Z,0.40
2023-05-18T08:34:01.929Z,0.10
2023-05-18T08:36:47.756Z,0.40
2023-05-18T08:40:14.338Z,1.75
2023-05-18T08:43:40.296Z,0.63
2023-05-18T08:46:57.220Z,0.20
2023-05-18T08:50:04.463Z,0.10
2023-05-18T08:53:09.201Z,0.43
2023-05-18T08:56:12.160Z,0.15
2023-05-18T08:59:18.632Z,0.43
2023-05-18T09:02:19.145Z,0.10
2023-05-18T09:05:21.233Z,0.75
2023-05-18T09:08:26.195Z,0.20
2023-05-18T09:11:28.233Z,0.20
2023-05-18T09:14:32.194Z,0.10
2023-05-18T09:17:33.354Z,0.10
2023-05-18T09:20:36.175Z,0.20
2023-05-18T09:23:37.183Z,0.10
2023-05-18T09:26:40.768Z,0.10
2023-05-18T09:29:41.237Z,0.32
2023-05-18T09:32:43.186Z,0.10
2023-05-18T09:35:45.177Z,0.20
2023-05-18T09:38:55.154Z,0.10
2023-05-18T09:41:56.168Z,0.00
2023-05-18T09:44:57.119Z,0.20
2023-05-18T09:47:58.235Z,0.40
2023-05-18T09:51:00.165Z,0.30
2023-05-18T09:54:12.095Z,0.20
2023-05-18T09:57:13.138Z,0.22
2023-05-18T10:00:19.252Z,0.43
2023-05-18T10:03:32.163Z,0.10
2023-05-18T10:06:33.169Z,0.57
2023-05-18T10:09:34.129Z,0.40
2023-05-18T10:12:38.909Z,0.35
2023-05-18T10:15:41.136Z,0.28
2023-05-18T10:18:50.145Z,0.10
2023-05-18T10:21:52.107Z,0.20
2023-05-18T10:24:56.078Z,0.25
2023-05-18T10:28:06.104Z,0.20
2023-05-18T10:31:09.192Z,0.20
2023-05-18T10:34:12.061Z,0.10
2023-05-18T10:37:16.097Z,1.00
2023-05-18T10:40:25.135Z,1.77
2023-05-18T10:43:27.221Z,0.38
2023-05-18T10:46:33.224Z,1.38
2023-05-18T10:49:36.159Z,2.28
2023-05-18T10:52:40.688Z,0.55
2023-05-18T10:55:43.101Z,0.68
2023-05-18T10:58:38.257Z,0.20
2023-05-18T11:01:39.068Z,0.50
2023-05-18T11:04:41.134Z,0.28
2023-05-18T11:07:43.095Z,0.35
2023-05-18T11:10:57.074Z,0.00
2023-05-18T11:14:03.098Z,0.10
2023-05-18T11:17:08.031Z,0.10
2023-05-18T11:20:19.111Z,0.10
2023-05-18T11:23:25.093Z,0.63
2023-05-18T11:26:30.009Z,0.35
2023-05-18T11:29:32.028Z,0.05
2023-05-18T11:32:44.271Z,0.10
2023-05-18T11:35:47.054Z,0.10
2023-05-18T11:39:06.066Z,0.10
2023-05-18T11:42:21.037Z,0.38
2023-05-18T11:48:15.517Z,0.00
2023-05-18T11:52:17.375Z,0.05
2023-05-18T11:54:53.652Z,0.20
2023-05-18T11:57:44.968Z,0.20
2023-05-18T12:00:13.491Z,0.00
2023-05-18T12:02:47.712Z,0.00
2023-05-18T12:05:16.390Z,0.00
2023-05-18T12:07:56.036Z,0.10
2023-05-18T12:10:28.851Z,0.00
2023-05-18T12:12:59.618Z,0.00
2023-05-18T12:15:31.811Z,0.00
2023-05-18T12:18:00.108Z,0.30
2023-05-18T12:20:31.413Z,0.10
2023-05-18T12:22:59.066Z,0.10
2023-05-18T12:25:28.284Z,0.00
2023-05-18T12:27:57.180Z,0.10
2023-05-18T12:30:35.814Z,0.10
2023-05-18T12:33:04.755Z,0.00
2023-05-18T12:35:33.572Z,0.20
2023-05-18T12:38:02.437Z,0.10
2023-05-18T12:40:49.155Z,0.10
2023-05-18T12:43:16.749Z,0.57
2023-05-18T12:45:45.525Z,0.10
2023-05-18T12:48:15.268Z,0.10
2023-05-18T12:50:51.481Z,0.00
2023-05-18T12:53:19.923Z,0.10
2023-05-18T12:56:00.279Z,0.00
2023-05-18T12:58:28.290Z,0.10
2023-05-18T13:00:55.847Z,0.47
2023-05-18T13:03:24.642Z,1.98
2023-05-18T13:06:07.576Z,1.80
2023-05-18T13:08:36.929Z,0.10
2023-05-18T13:11:13.685Z,0.00
2023-05-18T13:14:01.820Z,0.68
2023-05-18T13:16:31.308Z,0.30
2023-05-18T13:19:05.924Z,0.15
2023-05-18T13:21:38.368Z,0.10
2023-05-18T13:24:06.498Z,0.10
2023-05-18T13:26:34.447Z,0.10
2023-05-18T13:29:03.102Z,0.65
2023-05-18T13:31:31.353Z,0.00
2023-05-18T13:33:59.612Z,0.20
2023-05-18T13:36:30.146Z,0.00
2023-05-18T13:38:57.749Z,0.00
2023-05-18T13:41:28.055Z,0.25
2023-05-18T13:43:57.097Z,0.00
2023-05-18T13:46:24.505Z,0.00
2023-05-18T13:48:51.812Z,0.00
2023-05-18T13:51:18.858Z,0.00
2023-05-18T13:53:45.936Z,0.00
2023-05-18T13:56:13.178Z,0.00
2023-05-18T14:02:57.190Z,0.00
2023-05-18T14:05:25.100Z,0.05
2023-05-18T14:07:52.597Z,0.10
2023-05-18T14:10:20.840Z,0.00
2023-05-18T14:12:47.761Z,0.00
2023-05-18T14:15:15.860Z,0.00
2023-05-18T14:17:44.219Z,0.00
2023-05-18T14:20:12.694Z,0.10
2023-05-18T14:22:43.048Z,0.10
2023-05-18T14:25:10.708Z,0.98
2023-05-18T14:27:37.752Z,0.20
2023-05-18T14:30:06.410Z,0.20
2023-05-18T14:32:33.605Z,0.10
2023-05-18T14:35:00.950Z,0.10
2023-05-18T14:37:28.263Z,0.10
2023-05-18T14:39:55.323Z,0.10
2023-05-18T14:42:23.076Z,0.10
2023-05-18T14:44:50.030Z,0.20
2023-05-18T14:47:18.007Z,0.00
2023-05-18T14:49:45.138Z,0.10
2023-05-18T14:52:12.249Z,0.00
2023-05-18T14:54:40.487Z,0.00
2023-05-18T14:57:07.519Z,0.00
2023-05-18T14:59:34.591Z,0.03
2023-05-18T15:02:05.334Z,0.00
2023-05-18T15:04:32.396Z,0.10
2023-05-18T15:06:59.360Z,0.10
2023-05-18T15:09:27.037Z,0.20
2023-05-18T15:11:54.209Z,0.20
2023-05-18T15:14:21.141Z,0.10
2023-05-18T15:16:48.445Z,0.10
2023-05-18T15:19:16.896Z,0.40
2023-05-18T15:21:44.900Z,0.55
2023-05-18T15:24:12.162Z,0.00
2023-05-18T15:26:39.365Z,0.10
2023-05-18T15:29:06.396Z,0.00
2023-05-18T15:31:33.902Z,0.10
2023-05-18T15:34:01.002Z,0.10
2023-05-18T15:36:29.397Z,0.10
2023-05-18T15:38:56.466Z,0.03
2023-05-18T15:41:23.522Z,0.00
2023-05-18T15:43:50.575Z,0.10
2023-05-18T15:46:17.660Z,0.10
2023-05-18T15:48:44.680Z,0.10
2023-05-18T15:51:11.710Z,0.10
2023-05-18T15:53:38.737Z,0.10
2023-05-18T15:56:06.482Z,0.10
2023-05-18T15:58:34.312Z,0.10
2023-05-18T16:01:01.485Z,0.10
2023-05-18T16:03:28.498Z,0.08
2023-05-18T16:05:55.962Z,0.10
2023-05-18T16:08:23.030Z,0.10
2023-05-18T16:10:49.965Z,0.10
2023-05-18T16:13:17.025Z,0.15
2023-05-18T16:15:44.092Z,0.20
2023-05-18T16:18:13.527Z,0.15
2023-05-18T16:20:41.054Z,0.28
2023-05-18T16:23:08.018Z,0.10
2023-05-18T16:25:35.072Z,0.10
2023-05-18T16:28:02.473Z,0.15
2023-05-18T16:30:29.811Z,0.10
2023-05-18T16:32:57.319Z,0.10
2023-05-18T16:35:27.841Z,0.20
2023-05-18T16:37:54.998Z,0.10
2023-05-18T16:40:22.079Z,0.20
2023-05-18T16:42:49.047Z,0.10
2023-05-18T16:45:16.278Z,0.35
2023-05-18T16:47:44.344Z,0.10
2023-05-18T16:50:11.778Z,0.20
2023-05-18T16:52:39.695Z,0.20
2023-05-18T16:55:07.244Z,0.10
2023-05-18T16:57:34.154Z,0.10
2023-05-18T17:00:01.320Z,0.32
2023-05-18T17:02:28.929Z,0.10
2023-05-18T17:04:56.154Z,0.50
2023-05-18T17:07:23.763Z,0.40
2023-05-18T17:09:50.898Z,0.30
2023-05-18T17:12:17.834Z,0.20
2023-05-18T17:14:44.837Z,0.10
2023-05-18T17:17:11.931Z,0.25
2023-05-18T17:19:39.925Z,0.30
2023-05-18T17:22:09.793Z,0.35
2023-05-18T17:24:37.509Z,0.20
2023-05-18T17:27:05.219Z,0.20
2023-05-18T17:29:32.312Z,0.20
2023-05-18T17:31:59.739Z,0.20
2023-05-18T17:34:27.058Z,0.10
2023-05-18T17:36:55.096Z,0.10
2023-05-18T17:39:22.349Z,1.20
2023-05-18T17:41:51.437Z,0.20
2023-05-18T17:44:18.610Z,0.20
2023-05-18T17:46:46.292Z,0.43
2023-05-18T17:49:14.193Z,0.28
2023-05-18T17:51:41.921Z,0.20
2023-05-18T17:54:09.127Z,0.10
2023-05-18T17:56:37.065Z,0.10
2023-05-18T17:59:05.610Z,0.10
2023-05-18T18:01:34.130Z,0.20
2023-05-18T18:04:01.661Z,0.20
2023-05-18T18:06:29.147Z,0.10
2023-05-18T18:08:58.407Z,0.10
2023-05-18T18:11:26.816Z,0.10
2023-05-18T18:13:54.598Z,0.25
2023-05-18T18:16:22.453Z,0.20
2023-05-18T18:18:50.763Z,0.20
2023-05-18T18:21:17.948Z,0.57
2023-05-18T18:23:45.461Z,0.20
2023-05-18T18:26:12.650Z,0.10
2023-05-18T18:28:40.088Z,0.30
2023-05-18T18:31:07.279Z,0.35
2023-05-18T18:33:34.846Z,0.43
2023-05-18T18:36:04.476Z,0.40
2023-05-18T18:38:34.044Z,0.35
2023-05-18T18:41:04.410Z,0.40
2023-05-18T18:43:32.144Z,0.50
2023-05-18T18:46:04.658Z,0.35
2023-05-18T18:48:33.348Z,0.25
2023-05-18T18:51:00.489Z,0.43
2023-05-18T18:53:27.610Z,0.40
2023-05-18T18:55:54.897Z,0.45
2023-05-18T18:58:24.422Z,0.68
2023-05-18T19:00:51.460Z,0.77
2023-05-18T19:03:18.975Z,0.40
2023-05-18T19:05:54.220Z,0.55
2023-05-18T19:08:32.102Z,0.47
2023-05-18T19:10:59.911Z,0.65
2023-05-18T19:13:26.880Z,0.75
2023-05-18T19:15:54.242Z,0.70
2023-05-18T19:18:23.870Z,1.15
2023-05-18T19:20:50.920Z,0.70
2023-05-18T19:23:18.000Z,0.30
2023-05-18T19:25:45.223Z,0.52
2023-05-18T19:28:12.351Z,0.65
2023-05-18T19:30:39.394Z,0.65
2023-05-18T19:33:06.456Z,0.57
2023-05-18T19:35:33.897Z,0.73
2023-05-18T19:38:02.359Z,0.70
2023-05-18T19:40:30.115Z,1.42
2023-05-18T19:42:59.712Z,1.00
2023-05-18T19:45:26.893Z,0.68
2023-05-18T19:47:54.266Z,1.02
2023-05-18T19:50:21.811Z,0.93
2023-05-18T19:52:49.721Z,0.98
2023-05-18T19:55:17.858Z,0.95
2023-05-18T19:57:44.989Z,1.48
2023-05-18T20:00:12.420Z,1.20
2023-05-18T20:02:39.516Z,1.15
2023-05-18T20:05:07.668Z,1.20
2023-05-18T20:07:34.815Z,1.63
2023-05-18T20:10:01.938Z,1.15
2023-05-18T20:12:29.336Z,2.35
2023-05-18T20:14:56.758Z,1.63
2023-05-18T20:17:24.121Z,1.55
2023-05-18T20:19:51.230Z,1.75
2023-05-18T20:22:18.517Z,1.77
2023-05-18T20:24:46.346Z,1.67
2023-05-18T20:27:16.962Z,1.58
2023-05-18T20:29:44.211Z,1.40
2023-05-18T20:32:11.828Z,1.73
2023-05-18T20:34:41.570Z,2.00
2023-05-18T20:37:10.963Z,1.23
2023-05-18T20:39:39.969Z,0.88
2023-05-18T20:42:09.674Z,0.90
2023-05-18T20:44:38.040Z,1.40
2023-05-18T20:47:07.787Z,0.80
2023-05-18T20:49:36.656Z,2.28
2023-05-18T20:52:04.000Z,1.10
2023-05-18T20:54:31.391Z,0.82
2023-05-18T20:56:58.947Z,1.30
2023-05-18T20:59:26.355Z,1.25
2023-05-18T21:01:55.181Z,0.95
2023-05-18T21:04:23.169Z,1.70
2023-05-18T21:06:53.331Z,1.08
2023-05-18T21:09:20.313Z,1.17
2023-05-18T21:11:47.736Z,1.20
2023-05-18T21:14:15.112Z,1.77
2023-05-18T21:16:42.393Z,1.30
2023-05-18T21:19:09.676Z,1.80
2023-05-18T21:21:36.916Z,1.33
2023-05-18T21:24:04.085Z,1.00
2023-05-18T21:26:31.290Z,1.23
2023-05-18T21:28:58.665Z,0.98
2023-05-18T21:31:26.359Z,1.10
2023-05-18T21:33:53.601Z,1.17
2023-05-18T21:36:34.504Z,1.27
2023-05-18T21:39:04.778Z,1.25
2023-05-18T21:41:33.568Z,1.25
2023-05-18T21:44:01.397Z,1.13
2023-05-18T21:46:29.298Z,1.27
2023-05-18T21:48:56.549Z,1.00
2023-05-18T21:51:25.280Z,0.90
2023-05-18T21:53:52.707Z,1.27
2023-05-18T21:56:20.377Z,1.15
2023-05-18T21:58:47.471Z,0.77
2023-05-18T22:01:19.596Z,0.90
2023-05-18T22:03:48.139Z,0.80
2023-05-18T22:06:15.900Z,0.82
2023-05-18T22:08:42.955Z,0.90
2023-05-18T22:11:10.525Z,0.70
2023-05-18T22:13:37.763Z,0.70
2023-05-18T22:16:05.670Z,0.60
2023-05-18T22:18:32.805Z,0.68
2023-05-18T22:21:00.919Z,1.10
2023-05-18T22:23:28.196Z,0.88
2023-05-18T22:25:55.371Z,0.77
2023-05-18T22:28:22.521Z,1.05
2023-05-18T22:30:51.005Z,0.68
2023-05-18T22:33:18.576Z,0.90
2023-05-18T22:35:46.044Z,0.63
2023-05-18T22:38:13.356Z,0.63
2023-05-18T22:40:40.646Z,0.77
2023-05-18T22:43:07.904Z,0.60
2023-05-18T22:45:35.143Z,0.85
2023-05-18T22:48:02.332Z,0.80
2023-05-18T22:50:29.390Z,0.90
2023-05-18T22:52:56.655Z,1.00
2023-05-18T22:55:24.277Z,0.80
2023-05-18T22:57:51.415Z,1.20
2023-05-18T23:00:18.591Z,1.08
2023-05-18T23:02:45.914Z,1.00
2023-05-18T23:05:13.954Z,1.00
2023-05-18T23:07:41.862Z,1.85
2023-05-18T23:10:13.666Z,0.65
2023-05-18T23:12:46.286Z,1.92
2023-05-18T23:15:13.287Z,1.17
2023-05-18T23:17:46.294Z,0.93
2023-05-18T23:20:13.343Z,1.15
2023-05-18T23:22:40.321Z,1.70
2023-05-18T23:25:10.152Z,0.93
2023-05-18T23:27:37.178Z,1.50
2023-05-18T23:30:04.564Z,1.13
2023-05-18T23:32:32.834Z,1.83
2023-05-18T23:35:00.499Z,1.17
2023-05-18T23:37:32.154Z,1.40
2023-05-18T23:40:02.734Z,1.48
2023-05-18T23:42:31.314Z,1.63
2023-05-18T23:44:58.932Z,1.58
2023-05-18T23:47:26.236Z,2.33
2023-05-18T23:49:53.615Z,1.90
2023-05-18T23:52:33.773Z,2.80
2023-05-18T23:55:03.422Z,3.17
2023-05-18T23:57:33.192Z,2.95
